Time;durP1;ratioP1;P1;durP2;ratioP2;P2;SDS_P1;SDS_P2;PMS_P1;PMS_P2;Temp;Humidity;BMP_temperature;BMP_pressure;BME280_temperature;BME280_humidity;BME280_pressure;Samples;Min_cycle;Max_cycle;Signal;HPM_P1;HPM_P2
2021/09/12 00:01:58;;;;;;;5.22;3.88;;;;;;;9.92;86.49;91111.03;4961360;28;20041;-90
2021/09/12 00:04:24;;;;;;;8.35;4.20;;;;;;;9.73;86.61;91115.94;4958946;28;20482;-89
2021/09/12 00:06:49;;;;;;;5.28;3.85;;;;;;;9.64;86.05;91118.59;4943063;28;20030;-90
2021/09/12 00:09:15;;;;;;;7.85;4.53;;;;;;;9.67;86.23;91117.97;4959192;28;20034;-90
2021/09/12 00:11:40;;;;;;;6.97;4.00;;;;;;;9.63;85.84;91111.88;4945359;28;20026;-90
2021/09/12 00:14:05;;;;;;;7.75;4.15;;;;;;;9.41;86.54;91107.72;4959464;28;20045;-90
2021/09/12 00:16:31;;;;;;;6.38;3.88;;;;;;;9.60;86.06;91112.50;4962252;28;20014;-91
2021/09/12 00:18:56;;;;;;;10.20;4.28;;;;;;;9.46;86.94;91102.34;4962277;28;20030;-90
2021/09/12 00:21:22;;;;;;;9.23;4.63;;;;;;;9.32;86.85;91107.78;4962536;28;20049;-90
2021/09/12 00:23:47;;;;;;;6.43;3.90;;;;;;;9.24;86.30;91102.63;4979430;28;20165;-90
2021/09/12 00:26:13;;;;;;;4.85;3.70;;;;;;;9.34;86.41;91099.66;4962333;28;20022;-91
2021/09/12 00:28:38;;;;;;;6.88;4.40;;;;;;;9.21;88.20;91092.84;4977938;28;20025;-91
2021/09/12 00:31:04;;;;;;;9.30;4.28;;;;;;;9.16;89.14;91100.84;4962542;28;20029;-90
2021/09/12 00:33:31;;;;;;;6.40;4.03;;;;;;;9.19;88.04;91097.63;4979443;28;20030;-90
2021/09/12 00:35:57;;;;;;;4.53;3.50;;;;;;;9.23;87.42;91101.88;4994765;28;20100;-90
2021/09/12 00:38:23;;;;;;;5.45;3.38;;;;;;;9.17;86.49;91104.97;4978278;28;20056;-90
2021/09/12 00:40:48;;;;;;;6.88;4.03;;;;;;;9.06;86.46;91101.97;4977412;28;20026;-91
2021/09/12 00:43:14;;;;;;;4.82;3.40;;;;;;;9.10;86.91;91087.25;4943227;28;20030;-90
2021/09/12 00:45:39;;;;;;;6.22;3.90;;;;;;;9.12;86.77;91087.72;4962580;28;20026;-90
2021/09/12 00:48:05;;;;;;;5.22;3.83;;;;;;;9.04;87.08;91091.84;4990780;28;20030;-90
2021/09/12 00:50:30;;;;;;;8.02;4.15;;;;;;;8.98;90.17;91087.94;4978154;28;20018;-90
2021/09/12 00:52:59;;;;;;;6.70;4.15;;;;;;;9.01;90.71;91097.72;4978484;28;20022;-91
2021/09/12 00:55:25;;;;;;;6.47;4.10;;;;;;;8.96;89.31;91095.25;4978415;28;20077;-91
2021/09/12 00:57:50;;;;;;;4.82;3.63;;;;;;;8.92;88.50;91094.38;4961890;28;20030;-89
2021/09/12 01:00:16;;;;;;;4.78;3.35;;;;;;;8.81;86.88;91098.41;4979965;28;20093;-90
2021/09/12 01:02:42;;;;;;;5.57;3.53;;;;;;;8.75;87.03;91091.84;4965319;28;20026;-90
2021/09/12 01:05:08;;;;;;;5.38;3.67;;;;;;;8.79;86.59;91088.31;4964973;28;20057;-91
2021/09/12 01:07:33;;;;;;;6.18;3.50;;;;;;;8.58;87.78;91085.63;4981308;28;20057;-90
2021/09/12 01:09:59;;;;;;;6.35;3.88;;;;;;;8.79;88.87;91092.75;4965132;28;20017;-90
2021/09/12 01:12:24;;;;;;;4.97;3.78;;;;;;;8.74;88.94;91085.88;4965023;28;20037;-90
2021/09/12 01:14:49;;;;;;;5.32;3.80;;;;;;;8.76;89.40;91088.16;4964564;28;20018;-90
2021/09/12 01:17:15;;;;;;;6.38;4.40;;;;;;;8.83;88.67;91091.81;4980744;28;20018;-90
2021/09/12 01:19:40;;;;;;;8.07;3.42;;;;;;;8.79;88.34;91084.94;4980926;28;20038;-91
2021/09/12 01:22:06;;;;;;;4.95;3.42;;;;;;;8.69;87.40;91075.66;4981185;28;20025;-91
2021/09/12 01:24:32;;;;;;;6.03;3.55;;;;;;;8.64;87.77;91082.88;4980632;28;20053;-91
2021/09/12 01:26:57;;;;;;;7.82;3.80;;;;;;;8.60;88.40;91080.13;4980585;28;20018;-90
2021/09/12 01:29:23;;;;;;;4.35;3.47;;;;;;;8.74;88.00;91079.94;4964930;28;20046;-90
2021/09/12 01:31:48;;;;;;;4.68;3.85;;;;;;;8.69;88.70;91072.28;4997235;28;20045;-91
2021/09/12 01:34:14;;;;;;;7.90;3.92;;;;;;;8.64;88.11;91072.47;4997023;28;20496;-91
2021/09/12 01:36:39;;;;;;;5.22;3.42;;;;;;;8.70;88.34;91077.19;4996552;28;20030;-90
2021/09/12 01:39:05;;;;;;;5.57;3.92;;;;;;;8.69;87.94;91069.69;4964427;28;20052;-91
2021/09/12 01:41:31;;;;;;;4.82;3.30;;;;;;;8.75;87.28;91069.22;4964587;28;20342;-90
2021/09/12 01:44:00;;;;;;;7.43;3.53;;;;;;;8.85;86.50;91061.06;4996762;28;20022;-90
2021/09/12 01:46:26;;;;;;;4.80;3.13;;;;;;;8.65;86.35;91074.75;4978451;28;20026;-91
2021/09/12 01:48:52;;;;;;;5.80;3.67;;;;;;;8.51;87.17;91064.56;4960702;28;20101;-90
2021/09/12 01:51:18;;;;;;;7.18;3.55;;;;;;;8.54;88.14;91068.38;4945026;28;20049;-90
2021/09/12 01:53:44;;;;;;;9.73;4.15;;;;;;;8.52;89.14;91066.09;4981045;28;20417;-90
2021/09/12 01:56:09;;;;;;;7.88;3.55;;;;;;;8.52;88.11;91066.09;4964223;28;20029;-91
2021/09/12 01:58:35;;;;;;;6.40;3.22;;;;;;;8.58;87.66;91075.22;4979921;28;20033;-89
2021/09/12 02:01:00;;;;;;;5.78;3.45;;;;;;;8.62;86.78;91067.56;4996207;28;20029;-91
2021/09/12 02:03:25;;;;;;;5.90;3.88;;;;;;;8.73;87.15;91071.38;4964235;28;20080;-91
2021/09/12 02:05:51;;;;;;;7.78;3.60;;;;;;;8.53;87.99;91074.66;4976237;23;20046;-91
2021/09/12 02:08:17;;;;;;;7.45;5.38;;;;;;;8.48;89.01;91064.41;4975981;28;20033;-91
2021/09/12 02:10:45;;;;;;;5.50;3.70;;;;;;;8.77;87.48;91071.50;4992704;28;20030;-91
2021/09/12 02:13:10;;;;;;;5.85;3.55;;;;;;;8.79;87.09;91064.91;4992966;28;20105;-91
2021/09/12 02:15:36;;;;;;;5.10;3.75;;;;;;;8.66;87.68;91070.31;4979438;28;20062;-91
2021/09/12 02:18:01;;;;;;;7.47;4.45;;;;;;;8.57;89.36;91063.31;4944262;28;20037;-90
2021/09/12 02:20:27;;;;;;;7.80;3.80;;;;;;;8.59;89.79;91066.38;4992685;28;20026;-91
2021/09/12 02:22:52;;;;;;;5.75;3.97;;;;;;;8.55;90.31;91062.09;4976482;28;20030;-91
2021/09/12 02:25:18;;;;;;;5.50;3.80;;;;;;;8.58;90.19;91069.28;4960052;28;20034;-91
2021/09/12 02:27:43;;;;;;;6.72;4.05;;;;;;;8.55;89.83;91059.50;4975653;28;20049;-90
2021/09/12 02:30:09;;;;;;;6.32;4.03;;;;;;;8.55;90.07;91065.50;4976244;28;20398;-91
2021/09/12 02:32:34;;;;;;;6.30;3.55;;;;;;;8.53;89.79;91059.81;4976208;28;20493;-91
2021/09/12 02:35:00;;;;;;;7.93;4.47;;;;;;;8.49;90.30;91055.56;4976112;28;20030;-90
2021/09/12 02:37:25;;;;;;;7.65;3.67;;;;;;;8.46;90.15;91056.19;4993159;28;20041;-91
2021/09/12 02:39:51;;;;;;;5.40;3.88;;;;;;;8.51;90.08;91054.16;4975719;28;20030;-91
2021/09/12 02:42:16;;;;;;;5.47;3.78;;;;;;;8.55;89.35;91043.91;4992182;28;20027;-91
2021/09/12 02:44:42;;;;;;;5.35;3.88;;;;;;;8.51;90.41;91051.56;4993383;28;20112;-91
2021/09/12 02:47:07;;;;;;;5.90;4.60;;;;;;;8.46;89.74;91051.75;4975898;28;20023;-91
2021/09/12 02:49:33;;;;;;;5.65;3.88;;;;;;;8.41;89.28;91041.56;4970668;28;20026;-93
2021/09/12 02:51:58;;;;;;;6.35;3.83;;;;;;;8.38;90.15;91042.16;4986452;28;20103;-91
2021/09/12 02:54:23;;;;;;;6.80;3.95;;;;;;;8.42;90.03;91045.66;4992369;28;20438;-91
2021/09/12 02:56:49;;;;;;;6.78;4.32;;;;;;;8.53;91.04;91036.44;4992838;28;20433;-91
2021/09/12 02:59:14;;;;;;;7.65;4.32;;;;;;;8.56;91.47;91041.03;4992792;28;20533;-91
2021/09/12 03:01:40;;;;;;;7.47;4.70;;;;;;;8.53;90.52;91046.09;4991864;28;20402;-91
2021/09/12 03:04:05;;;;;;;6.15;4.00;;;;;;;8.43;90.40;91039.38;4975904;28;20049;-91
2021/09/12 03:06:30;;;;;;;8.35;3.92;;;;;;;8.43;90.25;91036.78;4975630;28;20030;-91
2021/09/12 03:08:56;;;;;;;6.07;3.90;;;;;;;8.41;89.59;91036.34;4991638;28;20406;-91
2021/09/12 03:11:21;;;;;;;4.85;3.55;;;;;;;8.29;88.15;91031.00;4991423;28;20034;-91
2021/09/12 03:13:47;;;;;;;5.05;3.45;;;;;;;8.19;87.78;91042.47;4959755;28;20521;-91
2021/09/12 03:16:12;;;;;;;5.97;3.60;;;;;;;8.27;87.56;91041.72;4975575;28;20018;-91
2021/09/12 03:18:38;;;;;;;5.85;3.67;;;;;;;8.12;87.45;91040.34;4975144;28;20026;-91
2021/09/12 03:21:03;;;;;;;4.70;3.30;;;;;;;8.09;87.87;91048.78;4975614;28;20084;-90
2021/09/12 03:23:28;;;;;;;4.28;3.13;;;;;;;8.04;87.45;91041.16;4959746;28;20097;-91
2021/09/12 03:25:54;;;;;;;6.25;3.65;;;;;;;7.95;87.66;91039.63;4975281;28;20100;-91
2021/09/12 03:28:19;;;;;;;7.90;3.33;;;;;;;7.87;87.54;91033.38;4958732;28;20038;-91
2021/09/12 03:30:45;;;;;;;4.70;3.40;;;;;;;7.79;87.15;91026.38;4991230;28;20038;-91
2021/09/12 03:33:14;;;;;;;6.03;3.08;;;;;;;7.88;87.12;91022.72;4959649;28;20026;-90
2021/09/12 03:35:39;;;;;;;6.10;2.97;;;;;;;7.76;87.59;91025.16;4959772;28;20033;-90
2021/09/12 03:38:05;;;;;;;5.05;3.05;;;;;;;7.72;88.33;91033.88;4959258;28;20030;-91
2021/09/12 03:40:30;;;;;;;7.18;3.30;;;;;;;7.69;88.73;91018.91;4974827;28;20026;-90
2021/09/12 03:42:56;;;;;;;5.43;3.70;;;;;;;7.73;88.88;91027.59;4992940;28;20045;-91
2021/09/12 03:45:21;;;;;;;5.60;3.60;;;;;;;7.79;89.32;91021.97;4975198;28;20484;-91
2021/09/12 03:47:46;;;;;;;5.72;4.20;;;;;;;7.86;89.44;91024.09;4975183;28;20026;-91
2021/09/12 03:50:12;;;;;;;8.65;4.35;;;;;;;7.76;90.10;91017.38;4955737;28;20023;-91
2021/09/12 03:52:38;;;;;;;6.10;3.75;;;;;;;7.80;90.60;91020.13;4973188;28;20027;-91
2021/09/12 03:55:04;;;;;;;5.68;3.70;;;;;;;7.83;91.06;91022.09;4972052;28;20022;-90
2021/09/12 03:57:29;;;;;;;6.57;4.30;;;;;;;7.88;91.37;91021.97;4974572;28;20096;-90
2021/09/12 03:59:55;;;;;;;8.55;4.15;;;;;;;7.98;90.96;91019.00;4974496;28;20556;-91
2021/09/12 04:02:20;;;;;;;6.15;3.80;;;;;;;8.14;90.33;91019.28;4974891;28;20027;-90
2021/09/12 04:04:46;;;;;;;7.32;4.00;;;;;;;8.15;90.41;91016.38;4974987;28;20029;-90
2021/09/12 04:07:11;;;;;;;6.85;4.53;;;;;;;8.15;91.00;91013.03;4974781;28;20031;-91
2021/09/12 04:09:36;;;;;;;9.23;5.15;;;;;;;8.30;92.10;91017.72;4958539;28;20038;-91
2021/09/12 04:12:02;;;;;;;7.70;4.78;;;;;;;8.49;91.33;91014.78;4991615;28;20031;-91
2021/09/12 04:14:28;;;;;;;6.95;4.38;;;;;;;8.51;90.92;91006.66;4991130;28;20375;-91
2021/09/12 04:16:53;;;;;;;6.72;4.38;;;;;;;8.41;90.42;91004.41;4958800;28;20023;-91
2021/09/12 04:19:18;;;;;;;6.55;4.25;;;;;;;8.44;90.29;91007.13;4991077;28;20037;-92
2021/09/12 04:21:44;;;;;;;10.90;4.15;;;;;;;8.39;90.32;91009.94;4975161;28;20030;-91
2021/09/12 04:24:09;;;;;;;8.15;4.43;;;;;;;8.37;91.06;91020.63;4960328;28;20485;-91
2021/09/12 04:26:35;;;;;;;6.20;4.18;;;;;;;8.34;91.83;91017.88;4994273;28;20026;-90
2021/09/12 04:29:00;;;;;;;7.10;4.10;;;;;;;8.36;91.24;91021.66;4978233;28;20076;-91
2021/09/12 04:31:26;;;;;;;5.95;3.95;;;;;;;8.41;90.48;91025.97;4978611;28;20096;-91
2021/09/12 04:33:51;;;;;;;5.65;4.20;;;;;;;8.46;89.16;91020.59;4978791;28;20030;-91
2021/09/12 04:36:16;;;;;;;8.48;4.38;;;;;;;8.34;90.24;91010.84;4994629;28;20367;-91
2021/09/12 04:38:42;;;;;;;6.50;4.32;;;;;;;8.36;90.82;91018.31;4995330;28;20438;-91
2021/09/12 04:41:07;;;;;;;5.68;4.15;;;;;;;8.45;90.55;91007.94;4978466;28;20399;-91
2021/09/12 04:43:33;;;;;;;5.60;4.03;;;;;;;8.41;91.23;91012.97;4995772;28;20574;-91
2021/09/12 04:45:58;;;;;;;11.55;4.03;;;;;;;8.39;90.94;91009.94;4995767;28;20018;-92
2021/09/12 04:48:24;;;;;;;5.03;3.85;;;;;;;8.40;91.18;91021.06;4961627;28;20505;-91
2021/09/12 04:50:49;;;;;;;4.95;3.75;;;;;;;8.40;91.67;91016.63;4994283;28;20522;-91
2021/09/12 04:53:15;;;;;;;6.55;4.15;;;;;;;8.37;91.60;91014.63;4962288;28;20395;-91
2021/09/12 04:55:40;;;;;;;6.50;3.58;;;;;;;8.33;91.54;91008.53;4977869;28;20030;-91
2021/09/12 04:58:06;;;;;;;4.95;3.42;;;;;;;8.33;91.98;91011.13;4961696;28;20022;-90
2021/09/12 05:00:31;;;;;;;6.45;4.05;;;;;;;8.33;91.26;91008.53;4978160;28;20026;-91
2021/09/12 05:02:57;;;;;;;5.10;3.78;;;;;;;8.35;89.85;91011.59;4994399;28;20018;-91
2021/09/12 05:05:22;;;;;;;5.90;3.60;;;;;;;8.26;89.85;91016.03;4977991;28;20022;-90
2021/09/12 05:07:47;;;;;;;5.72;3.97;;;;;;;8.30;89.03;91027.31;4961648;28;20037;-90
2021/09/12 05:10:13;;;;;;;5.00;3.85;;;;;;;8.09;90.05;91022.81;4977952;28;20026;-91
2021/09/12 05:12:38;;;;;;;5.93;3.90;;;;;;;8.02;89.96;91025.13;4961780;28;20026;-91
2021/09/12 05:15:04;;;;;;;5.40;3.53;;;;;;;8.05;89.38;91029.69;4961755;28;20026;-90
2021/09/12 05:17:30;;;;;;;7.05;3.47;;;;;;;8.00;89.37;91018.72;4961559;28;20034;-91
2021/09/12 05:19:55;;;;;;;5.18;3.75;;;;;;;7.96;89.72;91017.81;4977579;28;20030;-91
2021/09/12 05:22:21;;;;;;;6.20;3.80;;;;;;;8.04;89.67;91017.03;4960493;28;20023;-91
2021/09/12 05:24:46;;;;;;;5.28;3.67;;;;;;;8.03;90.00;91024.06;4994927;28;20022;-91
2021/09/12 05:27:11;;;;;;;5.00;3.25;;;;;;;8.04;89.13;91025.56;4945029;28;20031;-90
2021/09/12 05:29:37;;;;;;;4.82;3.67;;;;;;;7.93;89.33;91021.78;4960883;28;20038;-91
2021/09/12 05:32:03;;;;;;;8.68;3.88;;;;;;;7.95;90.41;91032.63;4977656;28;20030;-91
2021/09/12 05:34:28;;;;;;;7.10;3.90;;;;;;;7.96;89.85;91034.16;4977294;28;20022;-92
2021/09/12 05:36:54;;;;;;;5.80;3.63;;;;;;;8.01;89.51;91041.00;4960949;28;20018;-91
2021/09/12 05:39:19;;;;;;;4.88;3.63;;;;;;;7.97;89.39;91040.84;4960932;28;20022;-91
2021/09/12 05:41:45;;;;;;;5.53;3.47;;;;;;;8.05;90.45;91039.31;4961294;28;20042;-91
2021/09/12 05:44:10;;;;;;;7.07;3.92;;;;;;;8.09;90.43;91043.59;4993276;28;20034;-91
2021/09/12 05:46:36;;;;;;;4.72;3.58;;;;;;;8.08;91.01;91033.50;4961027;28;20038;-91
2021/09/12 05:49:02;;;;;;;6.60;4.15;;;;;;;8.17;91.65;91036.84;4994134;28;20030;-92
2021/09/12 05:51:28;;;;;;;5.65;3.78;;;;;;;8.26;91.19;91045.34;4993148;28;20026;-90
2021/09/12 05:53:54;;;;;;;6.03;3.63;;;;;;;8.37;90.58;91038.81;4978773;28;20026;-91
2021/09/12 05:56:19;;;;;;;7.05;3.55;;;;;;;8.52;90.68;91050.53;4977036;28;20019;-91
2021/09/12 05:58:45;;;;;;;5.47;3.97;;;;;;;8.53;91.16;91046.84;4944317;28;20575;-91
2021/09/12 06:01:12;;;;;;;4.90;3.92;;;;;;;8.51;91.50;91043.03;4993258;28;20390;-91
2021/09/12 06:03:37;;;;;;;5.35;3.75;;;;;;;8.56;91.73;91046.22;4979567;28;20027;-91
2021/09/12 06:06:03;;;;;;;6.40;3.80;;;;;;;8.61;91.82;91051.22;4980642;28;20033;-90
2021/09/12 06:08:28;;;;;;;5.55;4.00;;;;;;;8.57;91.97;91046.97;4995680;28;20033;-91
2021/09/12 06:10:54;;;;;;;4.57;3.63;;;;;;;8.62;91.37;91044.19;4994359;28;20030;-91
2021/09/12 06:13:19;;;;;;;4.22;3.25;;;;;;;8.60;90.73;91052.31;4977812;28;20685;-91
2021/09/12 06:15:45;;;;;;;6.72;3.42;;;;;;;8.56;90.35;91056.63;5002501;28;20014;-93
2021/09/12 06:18:10;;;;;;;5.70;3.50;;;;;;;8.49;89.86;91055.56;5006732;28;20038;-92
2021/09/12 06:20:35;;;;;;;9.55;5.18;;;;;;;8.57;90.56;91058.13;4996554;28;20030;-90
2021/09/12 06:23:01;;;;;;;5.82;3.85;;;;;;;8.63;90.67;91056.13;4994967;28;20037;-91
2021/09/12 06:25:26;;;;;;;5.25;3.78;;;;;;;8.70;90.99;91050.44;4977784;28;20034;-91
2021/09/12 06:27:52;;;;;;;4.68;3.53;;;;;;;8.85;90.92;91049.91;5009117;28;20022;-89
2021/09/12 06:30:18;;;;;;;5.65;4.20;;;;;;;8.92;91.75;91052.78;4964991;28;20042;-91
2021/09/12 06:32:44;;;;;;;5.07;3.83;;;;;;;9.05;91.98;91049.22;4977996;28;20022;-91
2021/09/12 06:35:10;;;;;;;6.03;4.40;;;;;;;9.12;92.47;91048.72;4994884;28;20029;-91
2021/09/12 06:37:35;;;;;;;8.07;4.50;;;;;;;9.21;92.44;91048.66;4993281;28;20117;-91
2021/09/12 06:40:01;;;;;;;9.80;4.72;;;;;;;9.21;92.06;91043.44;4977482;28;20023;-91
2021/09/12 06:42:26;;;;;;;7.55;5.28;;;;;;;9.23;91.78;91046.50;4992916;28;20101;-91
2021/09/12 06:44:52;;;;;;;7.93;5.07;;;;;;;9.32;91.59;91047.19;4961931;28;20418;-91
2021/09/12 06:47:17;;;;;;;6.88;4.90;;;;;;;9.52;91.14;91053.50;4976756;28;20019;-91
2021/09/12 06:49:43;;;;;;;8.15;5.00;;;;;;;9.54;91.16;91046.91;4977512;28;20057;-91
2021/09/12 06:52:08;;;;;;;7.32;5.22;;;;;;;9.70;91.25;91054.13;4978831;28;20084;-92
2021/09/12 06:54:34;;;;;;;8.40;5.00;;;;;;;9.80;90.73;91053.72;4977444;28;20030;-90
2021/09/12 06:56:59;;;;;;;9.00;4.70;;;;;;;9.91;90.84;91054.84;4976355;28;20483;-91
2021/09/12 06:59:25;;;;;;;9.02;5.03;;;;;;;10.05;91.38;91052.75;4961729;28;20431;-91
2021/09/12 07:01:50;;;;;;;8.80;4.70;;;;;;;10.15;91.26;91058.63;4960834;28;20042;-91
2021/09/12 07:04:15;;;;;;;6.53;5.00;;;;;;;10.27;91.25;91061.28;4961582;28;20026;-91
2021/09/12 07:06:41;;;;;;;6.93;4.80;;;;;;;10.37;91.34;91060.88;4977339;28;20120;-92
2021/09/12 07:09:06;;;;;;;6.50;4.82;;;;;;;10.51;90.67;91066.56;4960980;28;20549;-92
2021/09/12 07:11:32;;;;;;;9.60;5.05;;;;;;;10.65;90.03;91065.50;4977371;28;20041;-91
2021/09/12 07:13:57;;;;;;;7.03;4.70;;;;;;;10.72;88.89;91057.91;4977161;28;20030;-92
2021/09/12 07:16:22;;;;;;;6.78;4.43;;;;;;;10.84;88.84;91063.13;4977008;28;20030;-90
2021/09/12 07:18:48;;;;;;;6.82;4.72;;;;;;;10.98;89.42;91062.81;4976350;28;20085;-91
2021/09/12 07:21:13;;;;;;;7.68;4.90;;;;;;;11.13;91.00;91058.78;4980536;28;20033;-90
2021/09/12 07:23:39;;;;;;;6.80;5.20;;;;;;;11.25;91.39;91050.94;4999475;28;20022;-91
2021/09/12 07:26:04;;;;;;;6.65;5.05;;;;;;;11.41;90.89;91053.63;4981146;28;20027;-90
2021/09/12 07:28:30;;;;;;;8.75;5.10;;;;;;;11.57;91.26;91062.31;4976265;28;20027;-90
2021/09/12 07:30:55;;;;;;;8.45;5.45;;;;;;;11.71;90.41;91046.28;4963870;28;20034;-90
2021/09/12 07:33:21;;;;;;;6.65;4.45;;;;;;;11.84;89.05;91052.28;4960258;28;20084;-90
2021/09/12 07:35:46;;;;;;;9.07;5.18;;;;;;;12.02;90.67;91052.75;4959502;28;20050;-91
2021/09/12 07:38:11;;;;;;;6.75;4.43;;;;;;;12.19;87.71;91055.06;4960675;28;20033;-92
2021/09/12 07:40:37;;;;;;;11.23;4.85;;;;;;;12.29;85.52;91044.13;4991407;28;20122;-91
2021/09/12 07:43:03;;;;;;;6.30;4.47;;;;;;;12.73;85.36;91054.56;4959514;28;20034;-90
2021/09/12 07:45:28;;;;;;;8.00;3.97;;;;;;;12.85;82.67;91054.47;4991681;28;20178;-91
2021/09/12 07:47:53;;;;;;;7.82;4.00;;;;;;;12.86;77.78;91050.78;4985712;28;20375;-91
2021/09/12 07:50:19;;;;;;;8.10;3.80;;;;;;;13.01;78.08;91053.72;4956202;28;20027;-91
2021/09/12 07:52:44;;;;;;;5.38;3.88;;;;;;;13.07;78.30;91065.44;4925053;28;20471;-91
2021/09/12 07:55:11;;;;;;;6.88;3.85;;;;;;;13.25;76.70;91055.38;4938415;28;20043;-91
2021/09/12 07:57:36;;;;;;;6.38;3.38;;;;;;;13.31;77.58;91054.78;4956186;28;20015;-91
2021/09/12 08:00:03;;;;;;;7.38;3.60;;;;;;;13.49;76.21;91059.66;4960614;28;20402;-89
2021/09/12 08:02:29;;;;;;;6.93;3.65;;;;;;;13.53;76.03;91060.50;4963258;28;20113;-91
2021/09/12 08:04:54;;;;;;;4.78;3.08;;;;;;;13.60;75.58;91058.03;4978497;28;20037;-90
2021/09/12 08:07:20;;;;;;;5.07;2.97;;;;;;;13.77;75.68;91064.72;5027915;23;20050;-90
2021/09/12 08:09:45;;;;;;;5.93;3.00;;;;;;;13.90;73.70;91058.28;4962874;28;20037;-89
2021/09/12 08:12:10;;;;;;;5.53;3.17;;;;;;;13.91;73.15;91061.66;4963016;28;20073;-89
2021/09/12 08:14:37;;;;;;;4.30;2.65;;;;;;;14.06;74.24;91064.22;4962788;28;20033;-88
2021/09/12 08:17:02;;;;;;;8.75;3.08;;;;;;;14.03;73.28;91058.91;4963750;28;20609;-90
2021/09/12 08:19:28;;;;;;;5.05;2.88;;;;;;;14.15;72.04;91068.47;4978858;28;20031;-89
2021/09/12 08:21:53;;;;;;;5.38;2.58;;;;;;;14.28;71.53;91070.63;4979010;28;20034;-90
2021/09/12 08:24:19;;;;;;;4.03;2.78;;;;;;;14.27;72.12;91068.31;4959262;28;20026;-89
2021/09/12 08:26:44;;;;;;;6.38;2.70;;;;;;;14.31;73.46;91077.00;4969687;28;20026;-89
2021/09/12 08:29:09;;;;;;;4.07;2.60;;;;;;;14.40;71.78;91071.56;4962902;28;20101;-88
2021/09/12 08:31:35;;;;;;;3.47;2.25;;;;;;;14.54;68.83;91074.47;4959123;28;20550;-89
2021/09/12 08:34:00;;;;;;;6.20;2.45;;;;;;;14.83;67.87;91081.72;4996070;28;20022;-89
2021/09/12 08:36:26;;;;;;;8.73;2.92;;;;;;;14.87;66.90;91073.16;4963781;28;20023;-87
2021/09/12 08:38:51;;;;;;;5.15;2.50;;;;;;;14.89;67.62;91074.31;4986505;28;20038;-90
2021/09/12 08:41:17;;;;;;;4.82;2.47;;;;;;;14.89;67.88;91073.56;4963377;28;20027;-90
2021/09/12 08:43:42;;;;;;;4.53;2.38;;;;;;;14.99;67.41;91080.88;4962246;28;20053;-89
2021/09/12 08:46:07;;;;;;;4.70;2.47;;;;;;;14.97;65.96;91075.19;4962791;28;20022;-90
2021/09/12 08:48:34;;;;;;;5.25;2.22;;;;;;;15.02;66.53;91072.28;4961942;28;20034;-89
2021/09/12 08:50:59;;;;;;;7.38;3.08;;;;;;;15.20;68.00;91075.94;4963033;28;20026;-90
2021/09/12 08:53:25;;;;;;;2.80;2.00;;;;;;;15.23;65.97;91077.88;4962259;28;20022;-88
2021/09/12 08:55:50;;;;;;;3.40;2.53;;;;;;;15.19;65.64;91077.03;4978658;28;20037;-90
2021/09/12 08:58:15;;;;;;;6.38;2.50;;;;;;;15.21;67.27;91066.97;4962353;28;20023;-89
2021/09/12 09:00:44;;;;;;;3.63;2.42;;;;;;;15.28;65.47;91071.56;4978786;28;20019;-90
2021/09/12 09:03:10;;;;;;;3.20;1.92;;;;;;;15.22;64.82;91072.97;4978611;28;20025;-90
2021/09/12 09:05:40;;;;;;;4.47;2.28;;;;;;;15.23;65.80;91064.75;4962226;28;20050;-91
2021/09/12 09:08:16;;;;;;;5.07;2.28;;;;;;;15.53;66.23;91080.56;4962893;28;20478;-89
2021/09/12 09:10:49;;;;;;;4.35;2.13;;;;;;;15.54;64.07;91078.69;4961809;28;20378;-91
2021/09/12 09:13:36;;;;;;;3.58;2.17;;;;;;;15.66;64.94;91083.03;4962226;28;20065;-90
2021/09/12 09:16:06;;;;;;;5.45;2.35;;;;;;;15.68;63.52;91076.28;4978543;28;20114;-91
2021/09/12 09:18:39;;;;;;;6.88;2.17;;;;;;;15.56;62.97;91079.09;4977653;28;20046;-89
2021/09/12 09:21:27;;;;;;;3.55;2.10;;;;;;;15.89;67.32;91069.81;4962343;28;20470;-91
2021/09/12 09:24:06;;;;;;;3.05;2.10;;;;;;;16.04;65.32;91071.47;4977703;28;20034;-91
2021/09/12 09:26:38;;;;;;;5.18;2.25;;;;;;;16.16;67.97;91073.16;4962246;28;20504;-91
2021/09/12 09:29:04;;;;;;;3.78;2.30;;;;;;;16.35;66.55;91061.72;4962134;28;20027;-90
2021/09/12 09:31:30;;;;;;;4.57;2.30;;;;;;;16.37;63.70;91062.13;4962282;28;20030;-90
2021/09/12 09:33:55;;;;;;;4.10;2.28;;;;;;;16.71;65.46;91060.19;4961580;28;20037;-90
2021/09/12 09:36:20;;;;;;;3.42;2.00;;;;;;;16.73;61.24;91052.72;4977996;28;20018;-91
2021/09/12 09:38:47;;;;;;;3.35;1.80;;;;;;;16.69;60.89;91057.94;4961753;28;20402;-90
2021/09/12 09:41:18;;;;;;;4.07;2.15;;;;;;;16.70;63.64;91048.91;4961658;28;20124;-90
2021/09/12 09:43:48;;;;;;;3.67;1.95;;;;;;;16.85;60.77;91052.47;4977964;28;20033;-90
2021/09/12 09:46:29;;;;;;;3.42;1.98;;;;;;;16.95;59.63;91053.69;4962614;28;20026;-91
2021/09/12 09:48:54;;;;;;;4.07;1.92;;;;;;;16.79;59.04;91053.19;4993658;28;20029;-90
2021/09/12 09:51:20;;;;;;;5.93;2.20;;;;;;;16.89;61.09;91055.13;4962727;28;20023;-91
2021/09/12 09:53:46;;;;;;;5.35;2.13;;;;;;;16.77;59.44;91055.41;4962216;28;20089;-90
2021/09/12 09:56:11;;;;;;;2.70;2.03;;;;;;;16.92;62.05;91051.75;4963305;28;20584;-90
2021/09/12 09:58:37;;;;;;;6.18;2.15;;;;;;;17.13;64.18;91048.56;4961526;28;20019;-90
2021/09/12 10:01:02;;;;;;;2.63;1.92;;;;;;;17.34;62.83;91048.72;4961847;28;20034;-91
2021/09/12 10:03:28;;;;;;;3.03;1.83;;;;;;;17.39;58.08;91050.28;4978470;28;20022;-90
2021/09/12 10:05:54;;;;;;;2.80;2.03;;;;;;;17.24;60.99;91048.63;4964339;28;20112;-91
2021/09/12 10:08:19;;;;;;;3.22;2.15;;;;;;;17.36;58.33;91048.38;4980334;28;20041;-90
2021/09/12 10:10:45;;;;;;;2.72;1.75;;;;;;;17.43;59.27;91051.81;4964702;28;20037;-91
2021/09/12 10:13:11;;;;;;;3.72;1.90;;;;;;;17.59;60.31;91050.75;4980773;28;20026;-90
2021/09/12 10:15:38;;;;;;;4.85;1.85;;;;;;;17.79;60.45;91048.66;4961454;28;20092;-91
2021/09/12 10:18:04;;;;;;;4.03;2.42;;;;;;;18.05;58.36;91050.28;4961780;28;20073;-90
2021/09/12 10:20:30;;;;;;;3.97;1.90;;;;;;;18.26;58.34;91049.63;4961680;28;20035;-91
2021/09/12 10:23:01;;;;;;;3.13;1.90;;;;;;;18.14;57.03;91050.72;4961426;28;20549;-90
2021/09/12 10:25:27;;;;;;;4.97;2.50;;;;;;;18.47;59.01;91044.41;4962141;28;20430;-91
2021/09/12 10:27:59;;;;;;;3.65;2.13;;;;;;;18.74;57.26;91046.78;4961134;28;20039;-90
2021/09/12 10:30:38;;;;;;;3.42;2.00;;;;;;;18.69;56.90;91041.81;4994966;28;20038;-91
2021/09/12 10:33:06;;;;;;;3.47;2.10;;;;;;;19.02;58.12;91043.41;4962685;28;20049;-91
2021/09/12 10:35:36;;;;;;;3.17;2.08;;;;;;;19.09;58.46;91038.88;4994989;28;20025;-91
2021/09/12 10:38:02;;;;;;;4.18;2.30;;;;;;;19.04;57.64;91036.59;4978350;28;20026;-90
2021/09/12 10:40:49;;;;;;;2.38;2.00;;;;;;;19.24;58.09;91039.63;4997703;28;20018;-91
2021/09/12 10:43:23;;;;;;;3.95;2.10;;;;;;;19.55;57.33;91038.13;5000948;28;20033;-91
2021/09/12 10:45:49;;;;;;;2.70;2.00;;;;;;;19.46;55.34;91029.81;4995396;28;20050;-91
2021/09/12 10:48:19;;;;;;;5.47;2.10;;;;;;;19.61;57.21;91038.50;4978320;28;20426;-90
2021/09/12 10:50:45;;;;;;;4.38;2.20;;;;;;;19.67;52.61;91033.59;4978259;28;20513;-92
2021/09/12 10:53:10;;;;;;;3.40;2.17;;;;;;;19.72;53.82;91031.31;4977720;28;20109;-90
2021/09/12 10:55:59;;;;;;;4.18;2.30;;;;;;;20.00;54.06;91033.16;4961410;28;20037;-91
2021/09/12 10:58:25;;;;;;;5.03;2.40;;;;;;;19.96;54.20;91028.97;4977441;28;20022;-90
2021/09/12 11:00:51;;;;;;;4.85;2.17;;;;;;;20.20;55.17;91022.09;4961319;28;20049;-90
2021/09/12 11:03:17;;;;;;;4.35;2.20;;;;;;;20.33;53.12;91027.72;4960527;28;20513;-91
2021/09/12 11:05:42;;;;;;;3.05;2.03;;;;;;;20.27;53.57;91027.38;4961284;28;20034;-91
2021/09/12 11:08:07;;;;;;;5.05;2.10;;;;;;;20.39;52.81;91016.38;4960388;28;20034;-91
2021/09/12 11:10:41;;;;;;;3.30;2.10;;;;;;;20.54;52.30;91014.41;4992046;28;20029;-90
2021/09/12 11:13:06;;;;;;;3.92;2.05;;;;;;;20.47;51.84;91020.47;4961457;28;20027;-90
2021/09/12 11:15:32;;;;;;;3.78;2.17;;;;;;;20.31;49.39;91020.16;4976159;28;20445;-90
2021/09/12 11:17:57;;;;;;;6.28;2.28;;;;;;;20.21;50.64;91013.03;4992850;28;20164;-91
2021/09/12 11:20:44;;;;;;;4.65;2.15;;;;;;;20.39;51.60;91013.72;4963733;28;20033;-90
2021/09/12 11:23:10;;;;;;;3.88;2.33;;;;;;;20.42;53.31;91012.16;4961062;28;20026;-91
2021/09/12 11:25:35;;;;;;;4.78;2.22;;;;;;;20.59;51.19;91007.97;4975052;28;20030;-90
2021/09/12 11:28:02;;;;;;;5.25;2.30;;;;;;;20.59;54.83;91006.06;4959352;28;20080;-89
2021/09/12 11:30:28;;;;;;;3.88;2.03;;;;;;;20.84;52.09;91005.16;4959631;28;20026;-90
2021/09/12 11:32:53;;;;;;;3.03;2.15;;;;;;;20.90;49.40;90999.06;4959477;28;20030;-91
2021/09/12 11:35:19;;;;;;;4.60;2.15;;;;;;;20.78;48.88;90991.59;4975213;28;20030;-91